Time;durP1;ratioP1;P1;durP2;ratioP2;P2;SDS_P1;SDS_P2;PMS_P1;PMS_P2;Temp;Humidity;BMP_temperature;BMP_pressure;BME280_temperature;BME280_humidity;BME280_pressure;Samples;Min_cycle;Max_cycle;Signal;HPM_P1;HPM_P2
2022/08/18 00:00:34;;;;;;;;;;;;;;;28.15;100.00;98601.03;5089161;28;20407;-85
2022/08/18 00:03:00;;;;;;;;;;;;;;;28.21;100.00;98610.09;5088880;28;20490;-85
2022/08/18 00:05:25;;;;;;;;;;;;;;;28.11;100.00;98597.88;5091040;27;19992;-85
2022/08/18 00:07:51;;;;;;;;;;;;;;;28.23;100.00;98593.03;5089688;27;19916;-85
2022/08/18 00:10:16;;;;;;;;;;;;;;;28.21;100.00;98599.50;5082871;28;19967;-85
2022/08/18 00:12:42;;;;;;;;;;;;;;;28.22;100.00;98590.56;5071929;28;19920;-85
2022/08/18 00:15:09;;;;;;;;;;;;;;;28.15;100.00;98606.31;5067197;28;19916;-85
2022/08/18 00:17:35;;;;;;;;;;;;;;;28.18;100.00;98594.56;5066337;28;19920;-85
2022/08/18 00:20:00;;;;;;;;;;;;;;;28.14;100.00;98605.50;5087934;27;19916;-85
2022/08/18 00:22:25;;;;;;;;;;;;;;;28.18;100.00;98600.66;5083950;28;20030;-85
2022/08/18 00:24:51;;;;;;;;;;;;;;;28.22;100.00;98596.69;5064348;28;19916;-85
2022/08/18 00:27:20;;;;;;;;;;;;;;;28.17;100.00;98599.03;5080626;28;20278;-85
2022/08/18 00:29:45;;;;;;;;;;;;;;;28.00;100.00;98600.91;5092088;27;19923;-85
2022/08/18 00:32:12;;;;;;;;;;;;;;;28.03;100.00;98591.78;5091577;27;19945;-85
2022/08/18 00:34:38;;;;;;;;;;;;;;;28.04;100.00;98596.09;5090199;27;20277;-85
2022/08/18 00:37:03;;;;;;;;;;;;;;;27.95;100.00;98596.13;5071595;28;19950;-85
2022/08/18 00:39:29;;;;;;;;;;;;;;;27.86;100.00;98602.44;5092191;28;20115;-85
2022/08/18 00:41:55;;;;;;;;;;;;;;;27.85;100.00;98592.00;5074916;27;19968;-85
2022/08/18 00:44:20;;;;;;;;;;;;;;;27.82;100.00;98593.13;5074031;28;19915;-85
2022/08/18 00:46:45;;;;;;;;;;;;;;;27.85;100.00;98598.13;5079901;28;19931;-85
2022/08/18 00:49:10;;;;;;;;;;;;;;;27.90;100.00;98595.81;5087898;28;19922;-85
2022/08/18 00:51:42;;;;;;;;;;;;;;;27.94;100.00;98597.13;5070788;28;19965;-85
2022/08/18 00:54:20;;;;;;;;;;;;;;;27.92;100.00;98598.28;5079038;28;19916;-85
2022/08/18 00:56:49;;;;;;;;;;;;;;;27.78;100.00;98597.13;5070050;28;19919;-85
2022/08/18 00:59:16;;;;;;;;;;;;;;;27.59;100.00;98590.38;5066506;28;19916;-85
2022/08/18 01:01:42;;;;;;;;;;;;;;;27.16;100.00;98594.19;5086987;28;20715;-85
2022/08/18 01:04:18;;;;;;;;;;;;;;;27.26;100.00;98605.47;5094220;28;19930;-85
2022/08/18 01:06:45;;;;;;;;;;;;;;;27.23;100.00;98590.75;5088707;28;19915;-85
2022/08/18 01:09:11;;;;;;;;;;;;;;;27.15;100.00;98603.13;5076051;28;19922;-85
2022/08/18 01:11:37;;;;;;;;;;;;;;;27.50;100.00;98600.13;5074991;28;19916;-85
2022/08/18 01:14:03;;;;;;;;;;;;;;;27.54;100.00;98596.16;5074251;28;19926;-85
2022/08/18 01:22:04;;;;;;;;;;;;;;;27.57;100.00;98592.38;5094603;28;20002;-85
2022/08/18 01:27:17;;;;;;;;;;;;;;;27.39;100.00;98587.25;5094527;28;19918;-85
2022/08/18 01:29:46;;;;;;;;;;;;;;;27.36;100.00;98590.25;5076616;28;19920;-85
2022/08/18 01:32:14;;;;;;;;;;;;;;;27.09;100.00;98600.13;5088124;28;19923;-86
2022/08/18 01:34:39;;;;;;;;;;;;;;;26.88;100.00;98594.50;5078107;28;19920;-85
2022/08/18 01:37:05;;;;;;;;;;;;;;;26.66;100.00;98604.72;5064104;28;19961;-85
2022/08/18 01:39:30;;;;;;;;;;;;;;;27.09;100.00;98602.75;5070731;27;19919;-85
2022/08/18 01:41:55;;;;;;;;;;;;;;;27.24;100.00;98613.56;5075481;28;20482;-86
2022/08/18 01:44:21;;;;;;;;;;;;;;;27.12;100.00;98599.81;5069800;27;20321;-86
2022/08/18 01:46:46;;;;;;;;;;;;;;;27.27;100.00;98607.09;5075823;27;19919;-86
2022/08/18 01:49:12;;;;;;;;;;;;;;;27.19;100.00;98607.09;5081783;27;20113;-86
2022/08/18 01:51:41;;;;;;;;;;;;;;;27.12;100.00;98618.31;5063763;27;19971;-86
2022/08/18 01:54:07;;;;;;;;;;;;;;;27.07;100.00;98615.34;5086901;27;20512;-86
2022/08/18 01:56:32;;;;;;;;;;;;;;;27.10;100.00;98614.19;5087359;27;20020;-86
2022/08/18 01:58:57;;;;;;;;;;;;;;;27.04;100.00;98615.66;5090787;27;20482;-86
2022/08/18 02:01:23;;;;;;;;;;;;;;;27.02;100.00;98617.63;5084338;27;19916;-86
2022/08/18 02:03:50;;;;;;;;;;;;;;;27.05;100.00;98604.09;5087644;27;20408;-86
2022/08/18 02:06:18;;;;;;;;;;;;;;;27.09;100.00;98610.69;5084562;28;20360;-86
2022/08/18 02:08:44;;;;;;;;;;;;;;;27.05;100.00;98601.47;5068298;28;19964;-86
2022/08/18 02:11:09;;;;;;;;;;;;;;;27.03;100.00;98595.50;5090222;27;20425;-86
2022/08/18 02:13:34;;;;;;;;;;;;;;;26.84;100.00;98596.63;5047793;28;19978;-86
2022/08/18 02:16:00;;;;;;;;;;;;;;;26.87;100.00;98595.50;5063369;27;20337;-86
2022/08/18 02:18:26;;;;;;;;;;;;;;;26.97;100.00;98595.34;5054950;28;20011;-86
2022/08/18 02:20:52;;;;;;;;;;;;;;;26.98;100.00;98597.81;5063858;28;19916;-85
2022/08/18 02:23:18;;;;;;;;;;;;;;;26.78;100.00;98584.09;5101136;27;19973;-86
2022/08/18 02:25:43;;;;;;;;;;;;;;;26.97;100.00;98582.94;5078958;27;19920;-86
2022/08/18 02:28:08;;;;;;;;;;;;;;;26.84;100.00;98579.94;5087561;27;19915;-86
2022/08/18 02:30:36;;;;;;;;;;;;;;;26.82;100.00;98584.56;5086698;27;21341;-86
2022/08/18 02:33:01;;;;;;;;;;;;;;;26.66;100.00;98580.94;5068274;27;20302;-86
2022/08/18 02:35:26;;;;;;;;;;;;;;;26.65;100.00;98586.38;5086436;27;19926;-86
2022/08/18 02:37:51;;;;;;;;;;;;;;;26.79;100.00;98587.56;5072063;27;19919;-86
2022/08/18 02:40:17;;;;;;;;;;;;;;;26.63;100.00;98594.44;5069610;27;20355;-86
2022/08/18 02:42:43;;;;;;;;;;;;;;;26.79;100.00;98591.00;5087534;27;20146;-86
2022/08/18 02:45:09;;;;;;;;;;;;;;;26.75;100.00;98588.84;5083196;27;20383;-86
2022/08/18 02:47:34;;;;;;;;;;;;;;;26.61;100.00;98579.75;5064794;27;19931;-86
2022/08/18 02:49:59;;;;;;;;;;;;;;;26.47;100.00;98586.47;5050358;28;20385;-86
2022/08/18 02:52:31;;;;;;;;;;;;;;;26.57;100.00;98574.00;5085002;27;20299;-86
2022/08/18 02:54:57;;;;;;;;;;;;;;;26.69;100.00;98572.69;5083493;27;19920;-85
2022/08/18 02:57:22;;;;;;;;;;;;;;;26.72;100.00;98566.25;5070270;27;19923;-86
2022/08/18 02:59:47;;;;;;;;;;;;;;;26.53;100.00;98564.69;5066838;28;20132;-86
2022/08/18 03:02:13;;;;;;;;;;;;;;;26.52;100.00;98563.03;5080781;27;20075;-86
2022/08/18 03:04:39;;;;;;;;;;;;;;;26.59;100.00;98569.34;5104216;27;19926;-86
2022/08/18 03:07:05;;;;;;;;;;;;;;;26.65;100.00;98571.34;5085833;27;19968;-86
2022/08/18 03:09:30;;;;;;;;;;;;;;;26.61;100.00;98572.66;5084813;27;19971;-86
2022/08/18 03:11:56;;;;;;;;;;;;;;;26.35;100.00;98577.19;5069500;27;20010;-86
2022/08/18 03:14:21;;;;;;;;;;;;;;;26.41;100.00;98568.59;5065883;27;20014;-86
2022/08/18 03:16:47;;;;;;;;;;;;;;;26.38;100.00;98576.84;5060258;27;20390;-86
2022/08/18 03:19:15;;;;;;;;;;;;;;;26.27;100.00;98588.53;5086799;27;19919;-86
2022/08/18 03:21:40;;;;;;;;;;;;;;;26.52;100.00;98594.72;5066055;27;19923;-86
2022/08/18 03:24:05;;;;;;;;;;;;;;;26.31;100.00;98596.97;5053637;28;19920;-85
2022/08/18 03:26:31;;;;;;;;;;;;;;;26.29;100.00;98592.66;5084584;27;19946;-86
2022/08/18 03:28:57;;;;;;;;;;;;;;;26.19;100.00;98596.44;5083007;27;19920;-86
2022/08/18 03:31:23;;;;;;;;;;;;;;;26.23;100.00;98593.31;5066189;28;19923;-86
2022/08/18 03:33:50;;;;;;;;;;;;;;;26.05;100.00;98589.94;5071261;27;20281;-86
2022/08/18 03:36:16;;;;;;;;;;;;;;;26.04;100.00;98599.66;5066803;28;20427;-86
2022/08/18 03:38:42;;;;;;;;;;;;;;;25.67;100.00;98597.28;5082469;28;20403;-86
2022/08/18 03:41:08;;;;;;;;;;;;;;;25.99;100.00;98596.66;5052661;28;19916;-86
2022/08/18 03:43:33;;;;;;;;;;;;;;;25.93;100.00;98592.00;5077886;28;20261;-86
2022/08/18 03:45:59;;;;;;;;;;;;;;;26.04;100.00;98593.53;5081563;28;19928;-86
2022/08/18 03:48:25;;;;;;;;;;;;;;;26.02;100.00;98579.69;5081558;28;19920;-85
2022/08/18 03:50:50;;;;;;;;;;;;;;;25.94;100.00;98582.31;5090659;27;20151;-85
2022/08/18 03:53:15;;;;;;;;;;;;;;;26.00;100.00;98587.78;5075708;28;19919;-86
2022/08/18 03:55:40;;;;;;;;;;;;;;;25.98;100.00;98583.63;5083430;27;19916;-85
2022/08/18 03:58:06;;;;;;;;;;;;;;;25.93;100.00;98591.19;5103387;27;20436;-85
2022/08/18 04:00:32;;;;;;;;;;;;;;;26.03;100.00;98586.63;5087443;27;19919;-85
2022/08/18 04:03:00;;;;;;;;;;;;;;;26.00;100.00;98593.06;5067588;27;20005;-85
2022/08/18 04:05:26;;;;;;;;;;;;;;;26.02;100.00;98587.59;5067551;27;19998;-85
2022/08/18 04:07:51;;;;;;;;;;;;;;;25.99;100.00;98595.84;5085825;27;20464;-85
2022/08/18 04:10:16;;;;;;;;;;;;;;;25.84;100.00;98592.91;5086794;27;19919;-85
2022/08/18 04:12:41;;;;;;;;;;;;;;;25.96;100.00;98597.00;5087728;28;19915;-85
2022/08/18 04:15:08;;;;;;;;;;;;;;;25.97;100.00;98597.81;5083194;27;19988;-83
2022/08/18 04:17:33;;;;;;;;;;;;;;;25.98;100.00;98599.44;5089586;27;20264;-86
2022/08/18 04:19:58;;;;;;;;;;;;;;;25.99;100.00;98596.66;5071421;28;19923;-85
2022/08/18 04:22:24;;;;;;;;;;;;;;;25.99;100.00;98603.75;5061869;27;19920;-86
2022/08/18 04:24:49;;;;;;;;;;;;;;;25.98;100.00;98602.94;5085160;27;20014;-85
2022/08/18 04:27:15;;;;;;;;;;;;;;;25.95;100.00;98603.22;5068265;27;19919;-86
2022/08/18 04:29:40;;;;;;;;;;;;;;;25.97;100.00;98603.09;5085839;28;19975;-85
2022/08/18 04:32:05;;;;;;;;;;;;;;;25.85;100.00;98605.97;5062011;28;20584;-85
2022/08/18 04:34:32;;;;;;;;;;;;;;;25.75;100.00;98609.69;5061191;28;20447;-85
2022/08/18 04:36:57;;;;;;;;;;;;;;;25.67;100.00;98618.38;5072556;27;20376;-85
2022/08/18 04:39:22;;;;;;;;;;;;;;;25.63;100.00;98622.28;5092381;27;19919;-85
2022/08/18 04:41:47;;;;;;;;;;;;;;;25.73;100.00;98622.19;5091960;27;19919;-85
2022/08/18 04:44:16;;;;;;;;;;;;;;;25.82;100.00;98626.56;5091639;27;19915;-85
2022/08/18 04:46:42;;;;;;;;;;;;;;;25.67;100.00;98628.94;5091435;28;20395;-85
2022/08/18 04:49:09;;;;;;;;;;;;;;;25.58;100.00;98627.22;5087590;27;19998;-85
2022/08/18 04:51:34;;;;;;;;;;;;;;;25.71;100.00;98630.28;5091457;28;19912;-85
2022/08/18 04:53:59;;;;;;;;;;;;;;;25.78;100.00;98631.31;5092950;28;19927;-85
2022/08/18 04:56:25;;;;;;;;;;;;;;;25.68;100.00;98633.19;5091815;27;19923;-86
2022/08/18 04:58:59;;;;;;;;;;;;;;;25.72;100.00;98639.84;5107787;27;19939;-86
2022/08/18 05:01:28;;;;;;;;;;;;;;;25.97;100.00;98634.75;5077841;28;19919;-85
2022/08/18 05:03:55;;;;;;;;;;;;;;;25.81;100.00;98640.72;5091595;28;20342;-86
2022/08/18 05:06:24;;;;;;;;;;;;;;;25.72;100.00;98642.47;5056633;28;19924;-84
2022/08/18 05:08:49;;;;;;;;;;;;;;;25.59;100.00;98642.03;5067855;28;19964;-85
2022/08/18 05:11:14;;;;;;;;;;;;;;;26.02;100.00;98637.72;5073669;28;19923;-85
2022/08/18 05:13:42;;;;;;;;;;;;;;;26.08;100.00;98637.13;5058529;28;20650;-85
2022/08/18 05:16:07;;;;;;;;;;;;;;;26.31;100.00;98628.66;5071576;28;19924;-85
2022/08/18 05:18:37;;;;;;;;;;;;;;;26.43;100.00;98635.28;5085123;27;19967;-84
2022/08/18 05:21:02;;;;;;;;;;;;;;;26.38;100.00;98634.94;5080143;27;19940;-86
2022/08/18 05:23:28;;;;;;;;;;;;;;;25.76;100.00;98638.53;5076198;27;19923;-85
2022/08/18 05:26:02;;;;;;;;;;;;;;;25.19;100.00;98640.75;5096731;27;19923;-87
2022/08/18 05:28:27;;;;;;;;;;;;;;;25.15;100.00;98636.72;5078087;27;20708;-85
2022/08/18 05:30:53;;;;;;;;;;;;;;;24.55;100.00;98640.72;5077366;27;19912;-84
2022/08/18 05:33:18;;;;;;;;;;;;;;;24.18;100.00;98636.28;5078422;27;19923;-84
2022/08/18 05:35:45;;;;;;;;;;;;;;;24.34;100.00;98634.84;5079150;27;20303;-83
2022/08/18 05:38:14;;;;;;;;;;;;;;;24.50;100.00;98629.81;5096796;27;19964;-84
2022/08/18 05:40:39;;;;;;;;;;;;;;;24.24;100.00;98634.06;5113055;27;19920;-84
2022/08/18 05:43:05;;;;;;;;;;;;;;;23.55;100.00;98638.63;5091998;27;20383;-84
2022/08/18 05:45:30;;;;;;;;;;;;;;;23.49;100.00;98636.56;5077926;27;20012;-84
2022/08/18 05:47:56;;;;;;;;;;;;;;;23.79;100.00;98646.94;5077145;27;19916;-85
2022/08/18 05:50:21;;;;;;;;;;;;;;;23.92;100.00;98645.78;5069392;28;20073;-85
2022/08/18 05:52:46;;;;;;;;;;;;;;;23.98;100.00;98645.22;5049813;28;19958;-84
2022/08/18 05:58:17;;;;;;;;;;;;;;;23.77;100.00;98643.63;5093142;27;20002;-85
2022/08/18 06:00:45;;;;;;;;;;;;;;;25.01;100.00;98648.63;5107752;27;20199;-85
2022/08/18 06:03:13;;;;;;;;;;;;;;;25.64;100.00;98656.44;5089435;27;20388;-85
2022/08/18 06:06:00;;;;;;;;;;;;;;;25.97;100.00;98647.94;5086706;27;19923;-85
2022/08/18 06:08:30;;;;;;;;;;;;;;;26.05;100.00;98654.09;5057551;28;19916;-84
2022/08/18 06:10:55;;;;;;;;;;;;;;;26.41;100.00;98658.38;5061101;28;19941;-86
2022/08/18 06:13:21;;;;;;;;;;;;;;;24.92;100.00;98667.94;5069046;27;20104;-86
2022/08/18 06:16:05;;;;;;;;;;;;;;;25.37;100.00;98665.28;5088490;27;20010;-85
2022/08/18 06:18:42;;;;;;;;;;;;;;;26.06;100.00;98660.19;5105980;27;20181;-86
2022/08/18 06:21:21;;;;;;;;;;;;;;;25.33;100.00;98663.91;5087018;28;20219;-85
2022/08/18 06:23:46;;;;;;;;;;;;;;;25.95;100.00;98656.00;5107444;27;20002;-86
2022/08/18 06:26:13;;;;;;;;;;;;;;;25.94;100.00;98662.28;5087747;27;20022;-85
2022/08/18 06:28:41;;;;;;;;;;;;;;;25.92;100.00;98668.69;5078475;27;19915;-85
2022/08/18 06:31:13;;;;;;;;;;;;;;;26.44;100.00;98668.66;5108691;27;20150;-85
2022/08/18 06:33:38;;;;;;;;;;;;;;;26.21;100.00;98673.66;5070324;27;20462;-85
2022/08/18 06:36:24;;;;;;;;;;;;;;;26.18;100.00;98690.59;5103639;27;19915;-85
2022/08/18 06:38:53;;;;;;;;;;;;;;;26.19;100.00;98692.28;5061487;28;19915;-85
2022/08/18 06:41:22;;;;;;;;;;;;;;;25.82;100.00;98701.25;5085714;27;20318;-85
2022/08/18 06:43:52;;;;;;;;;;;;;;;25.81;100.00;98698.75;5088912;27;19983;-85
2022/08/18 06:46:18;;;;;;;;;;;;;;;25.07;100.00;98706.00;5058162;27;19916;-85
2022/08/18 06:48:46;;;;;;;;;;;;;;;24.65;100.00;98700.41;5071027;27;19915;-85
2022/08/18 06:51:12;;;;;;;;;;;;;;;24.39;100.00;98701.03;5091022;27;19915;-85
2022/08/18 06:53:51;;;;;;;;;;;;;;;24.53;100.00;98703.22;5069076;28;19977;-85
2022/08/18 06:56:42;;;;;;;;;;;;;;;24.71;100.00;98703.28;5084395;27;19920;-84
2022/08/18 06:59:13;;;;;;;;;;;;;;;25.14;100.00;98714.13;5097863;27;19923;-84
2022/08/18 07:01:39;;;;;;;;;;;;;;;25.56;100.00;98716.19;5108384;27;20386;-84
2022/08/18 07:04:04;;;;;;;;;;;;;;;25.67;100.00;98713.31;5076171;27;19915;-84
2022/08/18 07:06:30;;;;;;;;;;;;;;;25.32;100.00;98714.19;5091798;27;19920;-86
2022/08/18 07:09:15;;;;;;;;;;;;;;;25.60;100.00;98718.38;5069570;28;19912;-86
2022/08/18 07:11:42;;;;;;;;;;;;;;;26.28;100.00;98714.28;5093031;27;19913;-85
2022/08/18 07:14:20;;;;;;;;;;;;;;;26.48;100.00;98712.25;5089774;27;19915;-85
2022/08/18 07:16:45;;;;;;;;;;;;;;;26.64;100.00;98708.84;5073360;27;20339;-85
2022/08/18 07:19:15;;;;;;;;;;;;;;;26.63;100.00;98710.66;5090314;27;20337;-86
2022/08/18 07:21:41;;;;;;;;;;;;;;;26.53;100.00;98704.66;5087422;27;19915;-86
2022/08/18 07:24:08;;;;;;;;;;;;;;;26.77;100.00;98705.78;5056690;28;20635;-85
2022/08/18 07:26:52;;;;;;;;;;;;;;;26.53;100.00;98709.94;5066775;27;19940;-86
2022/08/18 07:29:17;;;;;;;;;;;;;;;27.17;100.00;98691.84;5084818;27;19916;-86
2022/08/18 07:31:47;;;;;;;;;;;;;;;27.33;100.00;98694.53;5069556;27;20311;-86
2022/08/18 07:34:24;;;;;;;;;;;;;;;26.58;100.00;98709.50;5077654;28;19915;-86
2022/08/18 07:36:53;;;;;;;;;;;;;;;27.19;100.00;98695.16;5085827;28;20443;-86
2022/08/18 07:39:19;;;;;;;;;;;;;;;26.76;100.00;98696.19;5073260;27;19912;-86
2022/08/18 07:42:03;;;;;;;;;;;;;;;26.55;100.00;98694.81;5074155;28;19912;-86
2022/08/18 07:44:39;;;;;;;;;;;;;;;26.98;100.00;98702.69;5088133;28;19945;-85
2022/08/18 07:47:25;;;;;;;;;;;;;;;26.85;100.00;98687.31;5088728;27;20341;-86
2022/08/18 07:49:57;;;;;;;;;;;;;;;26.72;100.00;98690.41;5092380;27;19919;-86
2022/08/18 07:52:43;;;;;;;;;;;;;;;25.80;100.00;98692.66;5098373;27;20006;-86
2022/08/18 07:55:08;;;;;;;;;;;;;;;26.14;100.00;98689.28;5097157;27;19915;-86
2022/08/18 07:57:53;;;;;;;;;;;;;;;25.32;100.00;98691.28;5114891;27;20038;-84
2022/08/18 08:00:23;;;;;;;;;;;;;;;25.37;100.00;98696.91;5082980;28;19916;-86
2022/08/18 08:02:57;;;;;;;;;;;;;;;24.98;100.00;98686.63;5083180;27;19920;-85
2022/08/18 08:05:29;;;;;;;;;;;;;;;24.98;100.00;98691.06;5095343;27;19964;-85
2022/08/18 08:07:58;;;;;;;;;;;;;;;24.98;100.00;98693.72;5116392;27;19922;-85
2022/08/18 08:10:39;;;;;;;;;;;;;;;25.34;100.00;98697.22;5095249;27;20136;-85
2022/08/18 08:13:04;;;;;;;;;;;;;;;25.61;100.00;98703.38;5096845;27;19899;-85
2022/08/18 08:15:31;;;;;;;;;;;;;;;26.78;100.00;98696.88;5103169;27;20289;-85
2022/08/18 08:18:00;;;;;;;;;;;;;;;26.63;100.00;98702.75;5078180;28;19975;-85
2022/08/18 08:20:45;;;;;;;;;;;;;;;26.15;100.00;98714.69;5105043;27;20005;-86
2022/08/18 08:23:24;;;;;;;;;;;;;;;26.71;100.00;98707.25;5104017;27;20090;-86
2022/08/18 08:26:08;;;;;;;;;;;;;;;25.97;100.00;98713.91;5090474;27;20249;-86
2022/08/18 08:28:34;;;;;;;;;;;;;;;26.80;100.00;98722.16;5105861;27;19990;-86
2022/08/18 08:30:59;;;;;;;;;;;;;;;26.90;100.00;98724.66;5106288;27;20197;-86
2022/08/18 08:33:30;;;;;;;;;;;;;;;27.24;100.00;98721.13;5106542;27;19998;-86
2022/08/18 08:36:06;;;;;;;;;;;;;;;27.08;100.00;98727.19;5086594;28;19950;-85
2022/08/18 08:38:38;;;;;;;;;;;;;;;27.93;100.00;98719.03;5092689;27;19916;-85
2022/08/18 08:41:04;;;;;;;;;;;;;;;28.03;100.00;98717.03;5129859;27;20108;-87
2022/08/18 08:43:33;;;;;;;;;;;;;;;28.12;100.00;98716.03;5123427;27;19982;-87
2022/08/18 08:46:16;;;;;;;;;;;;;;;27.83;100.00;98727.13;5071996;28;19922;-86
2022/08/18 08:48:53;;;;;;;;;;;;;;;27.37;100.00;98725.94;5089213;27;19915;-84
2022/08/18 08:51:27;;;;;;;;;;;;;;;27.85;100.00;98726.97;5084261;28;20328;-87
2022/08/18 08:54:11;;;;;;;;;;;;;;;27.89;100.00;98723.81;5088838;27;20554;-84
2022/08/18 08:56:42;;;;;;;;;;;;;;;28.10;100.00;98725.97;5106320;28;19920;-85
2022/08/18 08:59:09;;;;;;;;;;;;;;;27.90;100.00;98728.13;5075876;28;19969;-84
2022/08/18 09:01:51;;;;;;;;;;;;;;;28.31;100.00;98728.06;5073298;28;20436;-86
2022/08/18 09:04:19;;;;;;;;;;;;;;;28.56;100.00;98725.38;5076950;28;19922;-86
2022/08/18 09:07:04;;;;;;;;;;;;;;;27.95;100.00;98733.75;5089195;28;19943;-86
2022/08/18 09:09:37;;;;;;;;;;;;;;;27.99;100.00;98734.25;5084420;28;19912;-86
2022/08/18 09:12:24;;;;;;;;;;;;;;;28.29;100.00;98727.41;5075672;28;19919;-86
2022/08/18 09:15:08;;;;;;;;;;;;;;;27.53;100.00;98729.44;5091425;28;19920;-86
2022/08/18 09:17:55;;;;;;;;;;;;;;;28.44;100.00;98732.84;5063305;28;19920;-85
2022/08/18 09:20:22;;;;;;;;;;;;;;;28.81;100.00;98718.16;5091893;28;19942;-87
2022/08/18 09:22:52;;;;;;;;;;;;;;;29.09;100.00;98726.47;5099778;28;19912;-87
2022/08/18 09:28:23;;;;;;;;;;;;;;;29.67;100.00;98720.78;5094435;28;19973;-87
2022/08/18 09:31:04;;;;;;;;;;;;;;;29.64;100.00;98719.31;5085883;28;19982;-87
2022/08/18 09:36:51;;;;;;;;;;;;;;;30.30;100.00;98721.41;5103302;28;19924;-87
2022/08/18 09:42:38;;;;;;;;;;;;;;;30.02;100.00;98728.13;5093215;28;19970;-87
2022/08/18 09:45:05;;;;;;;;;;;;;;;30.48;100.00;98726.38;5089195;28;20415;-86
2022/08/18 09:47:31;;;;;;;;;;;;;;;28.90;100.00;98733.03;5100615;28;19967;-88
2022/08/18 09:49:59;;;;;;;;;;;;;;;28.81;100.00;98738.50;5109904;28;19955;-87
2022/08/18 09:52:25;;;;;;;;;;;;;;;29.23;100.00;98737.34;5071870;28;20011;-88
2022/08/18 09:54:53;;;;;;;;;;;;;;;28.70;100.00;98748.50;5069726;28;19985;-87
2022/08/18 09:57:20;;;;;;;;;;;;;;;29.49;100.00;98748.47;5064394;28;20059;-87
2022/08/18 09:59:52;;;;;;;;;;;;;;;30.00;100.00;98743.41;5084078;28;20292;-87
2022/08/18 10:02:40;;;;;;;;;;;;;;;29.85;100.00;98742.53;5103981;27;19971;-87
2022/08/18 10:05:14;;;;;;;;;;;;;;;29.62;100.00;98745.19;5107033;27;19915;-88
2022/08/18 10:07:42;;;;;;;;;;;;;;;29.67;100.00;98744.66;5087667;27;19990;-87
2022/08/18 10:10:13;;;;;;;;;;;;;;;29.28;100.00;98738.47;5073062;27;19915;-87
2022/08/18 10:12:55;;;;;;;;;;;;;;;29.64;100.00;98745.03;5090379;27;20260;-87
2022/08/18 10:15:39;;;;;;;;;;;;;;;29.74;100.00;98746.47;5089485;27;20340;-87
2022/08/18 10:18:22;;;;;;;;;;;;;;;29.83;100.00;98733.94;5076570;28;20431;-87
2022/08/18 10:20:58;;;;;;;;;;;;;;;30.03;100.00;98729.75;5079054;27;20510;-87
2022/08/18 10:23:53;;;;;;;;;;;;;;;29.92;100.00;98729.38;5104370;27;19915;-87
2022/08/18 10:26:30;;;;;;;;;;;;;;;29.83;100.00;98733.94;5027495;27;19917;-87
2022/08/18 10:28:57;;;;;;;;;;;;;;;29.71;99.80;98736.19;5087707;27;19916;-87
2022/08/18 10:31:22;;;;;;;;;;;;;;;30.39;100.00;98737.06;5088785;27;19958;-87
2022/08/18 10:33:54;;;;;;;;;;;;;;;29.61;100.00;98724.97;5071985;27;20208;-87
2022/08/18 10:36:39;;;;;;;;;;;;;;;29.86;100.00;98740.75;5105578;27;19923;-87
2022/08/18 10:39:05;;;;;;;;;;;;;;;29.74;100.00;98730.53;5087969;27;20652;-87
2022/08/18 10:41:30;;;;;;;;;;;;;;;29.52;100.00;98726.88;5089839;27;20437;-87
2022/08/18 10:43:58;;;;;;;;;;;;;;;30.13;100.00;98734.00;5068511;27;19915;-87
2022/08/18 10:46:25;;;;;;;;;;;;;;;30.18;100.00;98743.06;5058901;27;20063;-89
2022/08/18 10:48:58;;;;;;;;;;;;;;;30.11;98.79;98744.00;5070779;27;20267;-89
2022/08/18 10:51:27;;;;;;;;;;;;;;;30.33;98.79;98735.13;5070132;27;19915;-88
2022/08/18 10:53:52;;;;;;;;;;;;;;;30.28;100.00;98732.22;5081850;27;19916;-86
2022/08/18 10:56:36;;;;;;;;;;;;;;;29.91;100.00;98736.53;5094015;27;19915;-86
2022/08/18 10:59:14;;;;;;;;;;;;;;;29.65;99.81;98736.03;5108081;27;20407;-87
2022/08/18 11:05:28;;;;;;;;;;;;;;;30.46;96.67;98723.06;5106246;27;19915;-88
2022/08/18 11:07:57;;;;;;;;;;;;;;;30.14;100.00;98727.69;5086732;27;19938;-87
2022/08/18 11:10:33;;;;;;;;;;;;;;;30.36;99.08;98728.66;5077970;28;20619;-88
2022/08/18 11:13:20;;;;;;;;;;;;;;;30.35;97.13;98727.81;5081053;27;19912;-88
2022/08/18 11:15:51;;;;;;;;;;;;;;;29.37;100.00;98736.59;5087328;27;20499;-87
2022/08/18 11:18:17;;;;;;;;;;;;;;;29.92;100.00;98721.41;5098400;27;19919;-86
2022/08/18 11:20:43;;;;;;;;;;;;;;;30.36;98.79;98724.16;5098613;27;19916;-86
2022/08/18 11:23:13;;;;;;;;;;;;;;;30.70;94.28;98709.47;5070475;27;20510;-86
2022/08/18 11:25:40;;;;;;;;;;;;;;;30.60;94.94;98708.94;5088191;28;20075;-87
2022/08/18 11:28:22;;;;;;;;;;;;;;;30.95;93.62;98709.16;5071559;27;20373;-87
2022/08/18 11:30:49;;;;;;;;;;;;;;;30.53;96.46;98708.84;5085925;27;20359;-86
2022/08/18 11:33:15;;;;;;;;;;;;;;;30.79;93.27;98694.22;5087855;27;19923;-86
2022/08/18 11:35:59;;;;;;;;;;;;;;;29.33;100.00;98712.25;5085043;27;19915;-87
2022/08/18 11:38:26;;;;;;;;;;;;;;;30.22;97.95;98703.69;5085513;27;20203;-84
2022/08/18 11:40:53;;;;;;;;;;;;;;;29.19;100.00;98707.69;5088480;27;19915;-84
2022/08/18 11:43:22;;;;;;;;;;;;;;;29.56;100.00;98706.94;5105948;27;19973;-86
2022/08/18 11:45:51;;;;;;;;;;;;;;;29.75;100.00;98704.81;5077629;27;20014;-86
2022/08/18 11:48:17;;;;;;;;;;;;;;;29.98;100.00;98700.28;5070286;27;19915;-86
2022/08/18 11:51:00;;;;;;;;;;;;;;;29.44;100.00;98704.88;5086995;27;20216;-86
2022/08/18 11:53:32;;;;;;;;;;;;;;;28.76;100.00;98710.72;5084711;27;20202;-86
2022/08/18 11:56:13;;;;;;;;;;;;;;;29.91;100.00;98702.00;5103383;27;19950;-86
2022/08/18 11:58:49;;;;;;;;;;;;;;;29.77;100.00;98705.47;5104166;27;19931;-86
2022/08/18 12:01:28;;;;;;;;;;;;;;;28.18;100.00;98713.72;5067830;27;19919;-86
2022/08/18 12:03:53;;;;;;;;;;;;;;;28.83;100.00;98702.91;5085760;27;20031;-86
2022/08/18 12:06:21;;;;;;;;;;;;;;;28.06;100.00;98708.75;5073488;28;19980;-86
2022/08/18 12:08:52;;;;;;;;;;;;;;;29.84;100.00;98695.78;5070143;27;20605;-86
2022/08/18 12:11:19;;;;;;;;;;;;;;;29.66;100.00;98697.91;5088397;28;20279;-86
2022/08/18 12:13:45;;;;;;;;;;;;;;;29.27;100.00;98706.81;5071953;28;20002;-86
2022/08/18 12:16:30;;;;;;;;;;;;;;;29.75;100.00;98699.50;5085303;27;20060;-85
2022/08/18 12:18:57;;;;;;;;;;;;;;;31.11;94.69;98684.19;5102287;27;19915;-86
2022/08/18 12:21:22;;;;;;;;;;;;;;;29.44;100.00;98687.13;5089182;27;20006;-86
2022/08/18 12:23:48;;;;;;;;;;;;;;;30.48;94.67;98673.22;5086276;27;20578;-86
2022/08/18 12:26:13;;;;;;;;;;;;;;;31.21;90.44;98669.56;5087388;28;20455;-86
2022/08/18 12:28:39;;;;;;;;;;;;;;;31.47;89.85;98665.50;5071313;27;19915;-85
2022/08/18 12:31:04;;;;;;;;;;;;;;;30.64;94.62;98667.69;5111943;27;20269;-86
2022/08/18 12:33:30;;;;;;;;;;;;;;;31.60;87.65;98662.16;5092800;27;20478;-86
2022/08/18 12:35:55;;;;;;;;;;;;;;;31.19;89.93;98666.25;5094010;27;19926;-86
2022/08/18 12:38:22;;;;;;;;;;;;;;;31.67;86.21;98661.19;5090114;28;19920;-86
2022/08/18 12:40:47;;;;;;;;;;;;;;;31.54;90.07;98674.38;5108681;27;20643;-86
2022/08/18 12:43:13;;;;;;;;;;;;;;;32.05;86.92;98665.38;5073162;28;19915;-85
2022/08/18 12:45:38;;;;;;;;;;;;;;;32.19;83.56;98671.59;5072054;28;20276;-86
2022/08/18 12:48:04;;;;;;;;;;;;;;;32.62;83.49;98676.75;5097579;27;19940;-85
2022/08/18 12:50:29;;;;;;;;;;;;;;;30.99;87.19;98686.50;5077142;28;20054;-86
2022/08/18 12:52:54;;;;;;;;;;;;;;;30.91;93.94;98694.63;5093325;27;19962;-86
2022/08/18 12:55:19;;;;;;;;;;;;;;;31.85;90.91;98697.16;5078050;27;19922;-86
2022/08/18 12:57:45;;;;;;;;;;;;;;;31.73;92.79;98704.03;5071196;28;20015;-85
2022/08/18 13:00:13;;;;;;;;;;;;;;;31.83;88.79;98697.34;5089561;28;19916;-85
2022/08/18 13:02:42;;;;;;;;;;;;;;;31.37;87.05;98695.09;5073966;28;19920;-86
2022/08/18 13:05:09;;;;;;;;;;;;;;;32.51;84.12;98683.47;5081385;28;19916;-86
2022/08/18 13:07:38;;;;;;;;;;;;;;;32.23;85.32;98668.34;5095876;28;20454;-86
2022/08/18 13:10:05;;;;;;;;;;;;;;;31.38;87.00;98669.28;5089916;28;19915;-86
2022/08/18 13:12:31;;;;;;;;;;;;;;;30.43;89.12;98674.59;5074859;28;19922;-85